Time;durP1;ratioP1;P1;durP2;ratioP2;P2;SDS_P1;SDS_P2;PMS_P1;PMS_P2;Temp;Humidity;BMP_temperature;BMP_pressure;BME280_temperature;BME280_humidity;BME280_pressure;Samples;Min_cycle;Max_cycle;Signal;HPM_P1;HPM_P2
2024/03/15 00:04:26;;;;;;;23.60;17.05;;;;;;;;;;12933934;22;20370;-90
2024/03/15 00:09:29;;;;;;;26.40;17.30;;;;;;;;;;12934211;22;20858;-90
2024/03/15 00:14:32;;;;;;;23.60;16.75;;;;;;;;;;12934009;22;20435;-90
2024/03/15 00:19:35;;;;;;;21.35;15.95;;;;;;;;;;12955231;22;20374;-89
2024/03/15 00:24:37;;;;;;;23.65;16.63;;;;;;;;;;12934003;22;20359;-90
2024/03/15 00:29:40;;;;;;;24.02;17.25;;;;;;;;;;12933162;22;20367;-90
2024/03/15 00:34:42;;;;;;;23.92;16.27;;;;;;;;;;12933965;22;20397;-90
2024/03/15 00:39:44;;;;;;;26.30;17.70;;;;;;;;;;12932957;22;20437;-90
2024/03/15 00:44:48;;;;;;;24.30;17.20;;;;;;;;;;12933373;22;20405;-90
2024/03/15 00:49:50;;;;;;;24.25;16.88;;;;;;;;;;12934438;22;20838;-90
2024/03/15 00:54:53;;;;;;;24.17;16.02;;;;;;;;;;12933385;22;20425;-90
2024/03/15 00:59:55;;;;;;;24.53;17.70;;;;;;;;;;12933132;22;20378;-90
2024/03/15 01:04:57;;;;;;;25.57;16.90;;;;;;;;;;12932713;22;20374;-90
2024/03/15 01:10:00;;;;;;;27.65;17.60;;;;;;;;;;12953971;22;20367;-89
2024/03/15 01:15:02;;;;;;;24.38;17.83;;;;;;;;;;12934030;22;20429;-89
2024/03/15 01:20:08;;;;;;;26.27;17.70;;;;;;;;;;12933014;22;20386;-89
2024/03/15 01:25:10;;;;;;;29.35;19.15;;;;;;;;;;12934546;22;20359;-90
2024/03/15 01:30:12;;;;;;;28.95;19.33;;;;;;;;;;12953225;22;20426;-90
2024/03/15 01:35:16;;;;;;;27.07;18.70;;;;;;;;;;12932981;22;20370;-90
2024/03/15 01:40:21;;;;;;;27.83;20.63;;;;;;;;;;12938508;22;20386;-89
2024/03/15 01:45:23;;;;;;;29.98;20.08;;;;;;;;;;12950482;22;20362;-89
2024/03/15 01:50:26;;;;;;;30.58;21.13;;;;;;;;;;12937629;22;20827;-90
2024/03/15 01:55:28;;;;;;;31.77;21.27;;;;;;;;;;12936552;22;20431;-90
2024/03/15 02:00:31;;;;;;;27.67;19.63;;;;;;;;;;12937489;22;20451;-89
2024/03/15 02:05:33;;;;;;;28.75;19.20;;;;;;;;;;12935057;22;20428;-89
2024/03/15 02:10:36;;;;;;;28.07;19.73;;;;;;;;;;12935954;22;20440;-90
2024/03/15 02:15:39;;;;;;;27.05;18.80;;;;;;;;;;12935458;22;20412;-90
2024/03/15 02:20:41;;;;;;;26.08;18.45;;;;;;;;;;12935839;22;20436;-90
2024/03/15 02:25:43;;;;;;;27.73;19.05;;;;;;;;;;12935308;22;20393;-89
2024/03/15 02:30:46;;;;;;;26.42;18.63;;;;;;;;;;12935166;22;21094;-90
2024/03/15 02:35:50;;;;;;;29.43;20.00;;;;;;;;;;12936112;22;20400;-90
2024/03/15 02:40:52;;;;;;;29.67;18.90;;;;;;;;;;12935627;22;20846;-90
2024/03/15 02:45:54;;;;;;;28.02;20.15;;;;;;;;;;12935442;22;20367;-90
2024/03/15 02:50:57;;;;;;;28.48;19.27;;;;;;;;;;12935262;22;20362;-90
2024/03/15 02:56:00;;;;;;;30.98;19.45;;;;;;;;;;12933655;22;20362;-90
2024/03/15 03:01:02;;;;;;;28.90;19.50;;;;;;;;;;12934559;22;20386;-90
2024/03/15 03:06:06;;;;;;;29.67;19.63;;;;;;;;;;12934861;22;20405;-89
2024/03/15 03:11:09;;;;;;;28.77;20.15;;;;;;;;;;12934745;22;20371;-90
2024/03/15 03:16:11;;;;;;;28.73;20.43;;;;;;;;;;12956558;22;20490;-90
2024/03/15 03:21:14;;;;;;;33.22;20.83;;;;;;;;;;12934526;22;20699;-90
2024/03/15 03:26:16;;;;;;;31.02;20.88;;;;;;;;;;12934193;22;20427;-90
2024/03/15 03:31:18;;;;;;;30.20;21.05;;;;;;;;;;12933837;22;20904;-89
2024/03/15 03:36:20;;;;;;;29.73;20.85;;;;;;;;;;12934728;22;20367;-90
2024/03/15 03:41:23;;;;;;;34.30;22.83;;;;;;;;;;12934503;22;20424;-89
2024/03/15 03:46:25;;;;;;;38.53;23.83;;;;;;;;;;12934898;22;20429;-90
2024/03/15 03:51:27;;;;;;;40.72;25.38;;;;;;;;;;12937994;22;20363;-90
2024/03/15 03:56:30;;;;;;;38.30;25.83;;;;;;;;;;12939826;22;20831;-90
2024/03/15 04:01:33;;;;;;;41.75;26.65;;;;;;;;;;12936385;22;20378;-90
2024/03/15 04:06:35;;;;;;;42.60;28.35;;;;;;;;;;12933051;22;20370;-88
2024/03/15 04:11:38;;;;;;;41.75;28.63;;;;;;;;;;12933806;22;20406;-90
2024/03/15 04:16:42;;;;;;;44.88;29.83;;;;;;;;;;12933728;22;20401;-90
2024/03/15 04:21:45;;;;;;;45.58;30.40;;;;;;;;;;12934389;22;20452;-91
2024/03/15 04:26:47;;;;;;;46.17;30.20;;;;;;;;;;12933905;22;21107;-89
2024/03/15 04:31:51;;;;;;;51.13;31.88;;;;;;;;;;12933779;22;20370;-90
2024/03/15 04:36:53;;;;;;;54.53;32.55;;;;;;;;;;12934320;22;20362;-90
2024/03/15 04:41:55;;;;;;;55.25;34.42;;;;;;;;;;12933404;22;20382;-90
2024/03/15 04:46:58;;;;;;;60.60;36.15;;;;;;;;;;12954193;22;21142;-90
2024/03/15 04:52:00;;;;;;;60.47;35.95;;;;;;;;;;12932420;22;20359;-90
2024/03/15 04:57:03;;;;;;;57.15;35.30;;;;;;;;;;12933120;22;20437;-89
2024/03/15 05:02:06;;;;;;;58.60;35.00;;;;;;;;;;12932927;22;20447;-90
2024/03/15 05:07:08;;;;;;;58.50;36.03;;;;;;;;;;12932305;22;20447;-90
2024/03/15 05:12:12;;;;;;;57.10;35.17;;;;;;;;;;12930522;22;20367;-90
2024/03/15 05:17:14;;;;;;;55.43;34.40;;;;;;;;;;12931128;22;20660;-90
2024/03/15 05:22:18;;;;;;;57.43;34.70;;;;;;;;;;12928735;22;20382;-90
2024/03/15 05:27:21;;;;;;;66.10;36.53;;;;;;;;;;12930856;22;20441;-90
2024/03/15 05:32:23;;;;;;;61.30;35.03;;;;;;;;;;12932203;22;20456;-89
2024/03/15 05:37:26;;;;;;;65.03;35.88;;;;;;;;;;12953628;22;20367;-90
2024/03/15 05:42:31;;;;;;;70.10;36.47;;;;;;;;;;12934217;22;20417;-90
2024/03/15 05:47:33;;;;;;;65.22;35.00;;;;;;;;;;12932620;22;20404;-90
2024/03/15 05:52:36;;;;;;;64.72;34.67;;;;;;;;;;12931337;22;20900;-89
2024/03/15 05:57:39;;;;;;;69.38;35.20;;;;;;;;;;12953551;22;20432;-90
2024/03/15 06:02:42;;;;;;;64.55;33.20;;;;;;;;;;12932283;22;20379;-90
2024/03/15 06:07:44;;;;;;;62.80;33.13;;;;;;;;;;12932895;22;20428;-90
2024/03/15 06:12:47;;;;;;;66.00;33.53;;;;;;;;;;12935032;22;20374;-90
2024/03/15 06:17:49;;;;;;;62.65;33.45;;;;;;;;;;12936624;22;20362;-90
2024/03/15 06:22:52;;;;;;;66.80;34.13;;;;;;;;;;12955325;22;20704;-88
2024/03/15 06:27:54;;;;;;;68.25;34.42;;;;;;;;;;12956472;22;20741;-90
2024/03/15 06:32:59;;;;;;;67.00;32.65;;;;;;;;;;12935683;22;20367;-89
2024/03/15 06:38:10;;;;;;;63.35;32.40;;;;;;;;;;12936209;22;20366;-90
2024/03/15 06:43:25;;;;;;;65.50;33.17;;;;;;;;;;12936716;22;20456;-89
2024/03/15 06:48:43;;;;;;;65.95;33.45;;;;;;;;;;12951040;22;20416;-90
2024/03/15 06:53:47;;;;;;;67.27;33.73;;;;;;;;;;12930580;22;20355;-90
2024/03/15 06:58:49;;;;;;;66.05;32.58;;;;;;;;;;12917933;22;20452;-89
2024/03/15 07:03:52;;;;;;;69.27;32.47;;;;;;;;;;12930561;22;20370;-89
2024/03/15 07:08:54;;;;;;;63.60;31.50;;;;;;;;;;12893728;23;21021;-90
2024/03/15 07:13:58;;;;;;;60.63;30.83;;;;;;;;;;12895043;23;20364;-90
2024/03/15 07:19:00;;;;;;;64.53;31.60;;;;;;;;;;12897153;23;20445;-87
2024/03/15 07:24:04;;;;;;;58.93;30.63;;;;;;;;;;12896957;23;20369;-91
2024/03/15 07:29:07;;;;;;;61.30;32.03;;;;;;;;;;12917943;23;20886;-90
2024/03/15 07:34:09;;;;;;;61.25;31.02;;;;;;;;;;12895797;23;20681;-90
2024/03/15 07:39:14;;;;;;;66.82;33.17;;;;;;;;;;12896482;23;20837;-90
2024/03/15 07:44:17;;;;;;;67.60;33.72;;;;;;;;;;12918178;23;20360;-90
2024/03/15 07:49:19;;;;;;;69.45;32.83;;;;;;;;;;12896968;23;20406;-90
2024/03/15 07:54:22;;;;;;;66.63;32.47;;;;;;;;;;12894836;23;20434;-87
2024/03/15 07:59:25;;;;;;;62.85;32.22;;;;;;;;;;12894255;23;20407;-87
2024/03/15 08:04:27;;;;;;;68.00;32.50;;;;;;;;;;12893480;23;20369;-87
2024/03/15 08:09:30;;;;;;;62.90;31.50;;;;;;;;;;12914582;23;20685;-87
2024/03/15 08:14:36;;;;;;;60.97;30.92;;;;;;;;;;12892744;23;20430;-87
2024/03/15 08:19:39;;;;;;;60.83;29.25;;;;;;;;;;12894490;23;20844;-87
2024/03/15 08:24:41;;;;;;;57.33;28.95;;;;;;;;;;12896478;23;20906;-86
2024/03/15 08:29:44;;;;;;;60.80;29.42;;;;;;;;;;12896055;23;20356;-86
2024/03/15 08:34:48;;;;;;;58.70;28.70;;;;;;;;;;12914837;23;20372;-86
2024/03/15 08:39:51;;;;;;;65.70;30.35;;;;;;;;;;12893916;23;20506;-87
2024/03/15 08:44:54;;;;;;;63.60;31.42;;;;;;;;;;12892140;23;20907;-87
2024/03/15 08:50:00;;;;;;;67.03;29.48;;;;;;;;;;12894684;23;20415;-90
2024/03/15 08:55:02;;;;;;;61.33;29.63;;;;;;;;;;12895764;23;20364;-91
2024/03/15 09:00:11;;;;;;;60.03;29.27;;;;;;;;;;12895149;23;20384;-91
2024/03/15 09:05:14;;;;;;;53.05;25.02;;;;;;;;;;12897522;23;20447;-90
2024/03/15 09:10:16;;;;;;;54.40;25.27;;;;;;;;;;12896468;23;20914;-91
2024/03/15 09:15:22;;;;;;;52.17;25.33;;;;;;;;;;12894231;23;20364;-91
2024/03/15 09:20:33;;;;;;;54.05;25.55;;;;;;;;;;12896787;23;20415;-91
2024/03/15 09:25:35;;;;;;;53.55;26.58;;;;;;;;;;12896400;23;20364;-91
2024/03/15 09:30:46;;;;;;;53.95;27.85;;;;;;;;;;12895816;23;20375;-91
2024/03/15 09:35:48;;;;;;;53.00;26.77;;;;;;;;;;12893369;23;20360;-90
2024/03/15 09:40:56;;;;;;;56.80;27.30;;;;;;;;;;12914736;23;20463;-89
2024/03/15 09:45:59;;;;;;;57.65;27.05;;;;;;;;;;12895209;23;20918;-91
2024/03/15 09:51:03;;;;;;;52.67;27.23;;;;;;;;;;12895785;23;20417;-90
2024/03/15 09:56:07;;;;;;;55.45;28.23;;;;;;;;;;12893647;23;20388;-90
2024/03/15 10:01:09;;;;;;;56.60;29.67;;;;;;;;;;12919338;23;20921;-89
2024/03/15 10:06:12;;;;;;;53.47;28.42;;;;;;;;;;12906621;22;20366;-90
2024/03/15 10:11:14;;;;;;;55.77;29.20;;;;;;;;;;12936337;22;20826;-90
2024/03/15 10:16:16;;;;;;;57.00;29.88;;;;;;;;;;12935967;22;20436;-90
2024/03/15 10:21:19;;;;;;;56.08;30.77;;;;;;;;;;12935551;22;20409;-90
2024/03/15 10:26:21;;;;;;;55.65;32.25;;;;;;;;;;12936072;22;20912;-90
2024/03/15 10:31:23;;;;;;;57.72;30.80;;;;;;;;;;12935252;22;20362;-90
2024/03/15 10:36:26;;;;;;;55.67;31.23;;;;;;;;;;12935608;22;20823;-90
2024/03/15 10:41:28;;;;;;;56.35;30.42;;;;;;;;;;12934603;22;20382;-90
2024/03/15 10:46:30;;;;;;;58.40;31.45;;;;;;;;;;12955978;22;20359;-88
2024/03/15 10:51:36;;;;;;;63.42;33.40;;;;;;;;;;12936753;22;20443;-90
2024/03/15 10:56:38;;;;;;;56.83;30.77;;;;;;;;;;12936225;22;20424;-90
2024/03/15 11:01:41;;;;;;;58.47;31.97;;;;;;;;;;12935961;22;20383;-90
2024/03/15 11:06:44;;;;;;;59.30;31.17;;;;;;;;;;12936200;22;20375;-90
2024/03/15 11:11:56;;;;;;;56.10;30.47;;;;;;;;;;12936802;22;20358;-90
2024/03/15 11:17:02;;;;;;;53.20;30.27;;;;;;;;;;12934830;22;20397;-90
2024/03/15 11:22:04;;;;;;;58.05;30.48;;;;;;;;;;12930349;22;20382;-90
2024/03/15 11:27:09;;;;;;;55.13;30.67;;;;;;;;;;12932485;22;20436;-91
2024/03/15 11:32:12;;;;;;;56.88;29.85;;;;;;;;;;12935248;22;20366;-91
2024/03/15 11:37:15;;;;;;;55.58;31.63;;;;;;;;;;12933136;22;20408;-92
2024/03/15 11:42:17;;;;;;;55.78;29.80;;;;;;;;;;12932852;22;20390;-92
2024/03/15 11:47:20;;;;;;;56.85;29.48;;;;;;;;;;12935370;22;20433;-90
2024/03/15 11:52:22;;;;;;;53.30;29.53;;;;;;;;;;12932226;22;20965;-91
2024/03/15 11:57:26;;;;;;;51.33;28.95;;;;;;;;;;12933999;22;20366;-91
2024/03/15 12:02:28;;;;;;;49.17;27.40;;;;;;;;;;12931850;22;20837;-91
2024/03/15 12:07:31;;;;;;;46.63;27.17;;;;;;;;;;12928699;22;20808;-87
2024/03/15 12:12:33;;;;;;;47.85;27.83;;;;;;;;;;12928036;22;20689;-93
2024/03/15 12:17:35;;;;;;;41.47;24.52;;;;;;;;;;12928133;22;20423;-91
2024/03/15 12:22:38;;;;;;;44.50;25.40;;;;;;;;;;12924575;22;20382;-91
2024/03/15 12:27:41;;;;;;;45.33;27.25;;;;;;;;;;12923830;22;20370;-92
2024/03/15 12:32:43;;;;;;;43.90;23.80;;;;;;;;;;12946596;22;20358;-92
2024/03/15 12:37:46;;;;;;;42.20;23.70;;;;;;;;;;12926521;22;20456;-91
2024/03/15 12:42:48;;;;;;;44.30;25.02;;;;;;;;;;12919512;22;20394;-89
2024/03/15 12:47:50;;;;;;;42.13;23.80;;;;;;;;;;12918497;22;20386;-91
2024/03/15 12:52:53;;;;;;;47.30;25.40;;;;;;;;;;12921021;22;20386;-91
2024/03/15 12:57:55;;;;;;;45.73;24.80;;;;;;;;;;12928839;22;20842;-91
2024/03/15 13:02:58;;;;;;;51.40;24.97;;;;;;;;;;12931221;22;20386;-90
2024/03/15 13:08:00;;;;;;;45.37;22.93;;;;;;;;;;12927944;22;20415;-90
2024/03/15 13:13:04;;;;;;;44.25;23.33;;;;;;;;;;12931612;22;20691;-91
2024/03/15 13:18:07;;;;;;;43.58;24.17;;;;;;;;;;12930114;22;20367;-91
2024/03/15 13:23:09;;;;;;;43.97;25.00;;;;;;;;;;12930361;22;20386;-91
2024/03/15 13:28:11;;;;;;;46.15;25.08;;;;;;;;;;12948952;22;20359;-91
2024/03/15 13:33:14;;;;;;;43.67;24.50;;;;;;;;;;12929649;22;20363;-91
2024/03/15 13:38:16;;;;;;;41.17;23.40;;;;;;;;;;12949843;22;20363;-92
2024/03/15 13:43:18;;;;;;;44.33;24.23;;;;;;;;;;12927987;22;20416;-92
2024/03/15 13:48:21;;;;;;;40.38;22.70;;;;;;;;;;12928531;22;20923;-91
2024/03/15 13:53:23;;;;;;;43.60;24.20;;;;;;;;;;12927744;22;20492;-91
2024/03/15 13:58:25;;;;;;;39.20;22.55;;;;;;;;;;12925123;22;20362;-88
2024/03/15 14:03:30;;;;;;;40.78;22.63;;;;;;;;;;12929161;22;20444;-90
2024/03/15 14:08:35;;;;;;;38.87;22.27;;;;;;;;;;12927790;22;20370;-91
2024/03/15 14:13:37;;;;;;;36.67;22.25;;;;;;;;;;12923064;22;20772;-90
2024/03/15 14:18:39;;;;;;;34.08;19.75;;;;;;;;;;12922458;22;20712;-90
2024/03/15 14:23:42;;;;;;;38.15;20.60;;;;;;;;;;12925887;22;20406;-90
2024/03/15 14:28:47;;;;;;;36.37;20.60;;;;;;;;;;12926854;22;20367;-90
2024/03/15 14:33:49;;;;;;;36.75;20.88;;;;;;;;;;12929696;22;20367;-90
2024/03/15 14:38:54;;;;;;;40.07;21.00;;;;;;;;;;12925883;22;20366;-91
2024/03/15 14:43:56;;;;;;;37.50;21.27;;;;;;;;;;12925276;22;20850;-90
2024/03/15 14:48:58;;;;;;;42.30;21.70;;;;;;;;;;12930706;22;20422;-87
2024/03/15 14:54:02;;;;;;;40.92;22.88;;;;;;;;;;12945624;22;20363;-88
2024/03/15 14:59:05;;;;;;;41.35;25.33;;;;;;;;;;12952877;22;20363;-90
2024/03/15 15:04:07;;;;;;;38.30;19.55;;;;;;;;;;12929489;22;20711;-90
2024/03/15 15:09:11;;;;;;;37.20;21.15;;;;;;;;;;12930001;22;20432;-89
2024/03/15 15:14:13;;;;;;;39.20;21.27;;;;;;;;;;12928649;22;20367;-90
2024/03/15 15:19:16;;;;;;;35.80;20.25;;;;;;;;;;12924965;22;20413;-90
2024/03/15 15:24:20;;;;;;;38.83;21.70;;;;;;;;;;12923343;22;20405;-90
2024/03/15 15:29:22;;;;;;;39.10;21.75;;;;;;;;;;12924443;22;20370;-91
2024/03/15 15:34:24;;;;;;;34.80;20.20;;;;;;;;;;12924979;22;20379;-90
2024/03/15 15:39:27;;;;;;;34.78;19.92;;;;;;;;;;12924463;22;20440;-90
2024/03/15 15:44:30;;;;;;;39.23;21.50;;;;;;;;;;12925684;22;20460;-91
2024/03/15 15:49:33;;;;;;;38.45;21.60;;;;;;;;;;12927460;22;20444;-91
2024/03/15 15:54:36;;;;;;;42.60;22.88;;;;;;;;;;12924330;22;20405;-90
2024/03/15 15:59:38;;;;;;;39.63;23.17;;;;;;;;;;12923264;22;20367;-90
2024/03/15 16:04:40;;;;;;;39.33;22.95;;;;;;;;;;12921355;22;20412;-90
2024/03/15 16:09:42;;;;;;;41.97;23.20;;;;;;;;;;12922927;22;20924;-89
2024/03/15 16:14:45;;;;;;;42.50;24.07;;;;;;;;;;12924933;22;20429;-88
2024/03/15 16:19:49;;;;;;;45.25;24.30;;;;;;;;;;12924460;22;20846;-89
2024/03/15 16:24:52;;;;;;;42.95;24.38;;;;;;;;;;12924328;22;21151;-90
2024/03/15 16:29:55;;;;;;;41.70;23.88;;;;;;;;;;12923884;22;20897;-90
2024/03/15 16:34:57;;;;;;;43.93;24.77;;;;;;;;;;12924257;22;20581;-89
2024/03/15 16:40:00;;;;;;;41.77;24.13;;;;;;;;;;12921973;22;20413;-91
2024/03/15 16:45:02;;;;;;;42.85;24.23;;;;;;;;;;12923742;22;20386;-92
2024/03/15 16:50:05;;;;;;;44.35;24.02;;;;;;;;;;12942001;22;20382;-91
2024/03/15 16:55:11;;;;;;;40.88;23.05;;;;;;;;;;12924771;22;20851;-92
2024/03/15 17:00:16;;;;;;;42.78;23.35;;;;;;;;;;12926912;22;20363;-92
2024/03/15 17:05:19;;;;;;;41.80;22.48;;;;;;;;;;12923823;22;20839;-88
2024/03/15 17:10:21;;;;;;;41.75;23.98;;;;;;;;;;12874524;23;21075;-90
2024/03/15 17:15:26;;;;;;;44.70;24.27;;;;;;;;;;12878846;22;20376;-90
2024/03/15 17:20:28;;;;;;;41.65;24.38;;;;;;;;;;12877358;23;20380;-90
2024/03/15 17:25:31;;;;;;;44.13;25.17;;;;;;;;;;12876874;22;20934;-90
2024/03/15 17:30:33;;;;;;;45.47;25.52;;;;;;;;;;12881703;22;20376;-90
2024/03/15 17:35:36;;;;;;;45.28;26.75;;;;;;;;;;12883038;22;20380;-90
2024/03/15 17:40:38;;;;;;;45.20;26.73;;;;;;;;;;12884046;23;20426;-90
2024/03/15 17:45:40;;;;;;;44.07;26.03;;;;;;;;;;12889684;23;20380;-90
2024/03/15 17:50:43;;;;;;;41.90;25.30;;;;;;;;;;12891206;23;20434;-91
2024/03/15 17:55:46;;;;;;;40.00;24.83;;;;;;;;;;12911700;23;20391;-89
2024/03/15 18:00:48;;;;;;;44.47;26.63;;;;;;;;;;12891427;23;20446;-89
2024/03/15 18:05:50;;;;;;;42.88;25.00;;;;;;;;;;12895449;22;20462;-89
2024/03/15 18:10:53;;;;;;;43.25;26.02;;;;;;;;;;12927294;22;20362;-90
2024/03/15 18:16:05;;;;;;;44.73;26.70;;;;;;;;;;12928101;22;20374;-90
2024/03/15 18:21:10;;;;;;;50.80;28.83;;;;;;;;;;12936165;22;20417;-89
2024/03/15 18:26:13;;;;;;;47.90;28.80;;;;;;;;;;12929304;22;20448;-88
2024/03/15 18:31:15;;;;;;;51.40;31.23;;;;;;;;;;12930582;22;20370;-92
2024/03/15 18:36:19;;;;;;;55.83;31.92;;;;;;;;;;12928248;22;20358;-92
2024/03/15 18:41:21;;;;;;;54.57;31.97;;;;;;;;;;12923976;22;20417;-90
2024/03/15 18:46:24;;;;;;;49.77;30.27;;;;;;;;;;12924472;22;21357;-91
2024/03/15 18:51:26;;;;;;;51.22;31.02;;;;;;;;;;12928078;22;20417;-90
2024/03/15 18:56:28;;;;;;;57.65;32.28;;;;;;;;;;12917013;22;20448;-89
2024/03/15 19:01:32;;;;;;;57.25;33.10;;;;;;;;;;12917051;22;20434;-91
2024/03/15 19:06:36;;;;;;;55.53;33.67;;;;;;;;;;12918071;22;20382;-90
2024/03/15 19:11:38;;;;;;;55.75;32.03;;;;;;;;;;12918326;22;20387;-91
2024/03/15 19:16:42;;;;;;;53.50;32.03;;;;;;;;;;12919968;22;20847;-91
2024/03/15 19:21:45;;;;;;;55.20;32.92;;;;;;;;;;12924946;22;20393;-90
2024/03/15 19:26:47;;;;;;;54.78;33.42;;;;;;;;;;12926923;22;20448;-92
2024/03/15 19:31:52;;;;;;;58.88;34.05;;;;;;;;;;12924513;22;20421;-88
2024/03/15 19:36:55;;;;;;;56.10;33.23;;;;;;;;;;12925182;22;20429;-88
2024/03/15 19:41:59;;;;;;;56.38;33.00;;;;;;;;;;12925387;22;20409;-89
2024/03/15 19:47:01;;;;;;;55.42;34.08;;;;;;;;;;12925975;22;20498;-89
2024/03/15 19:52:09;;;;;;;56.53;34.80;;;;;;;;;;12925327;22;20378;-89
2024/03/15 19:57:14;;;;;;;55.42;34.35;;;;;;;;;;12925653;22;20387;-88
2024/03/15 20:02:17;;;;;;;54.80;33.15;;;;;;;;;;12925268;22;20413;-89
2024/03/15 20:07:22;;;;;;;60.33;33.35;;;;;;;;;;12923794;22;20382;-89
2024/03/15 20:12:29;;;;;;;56.08;34.38;;;;;;;;;;12938375;22;20374;-88
2024/03/15 20:17:35;;;;;;;59.13;33.70;;;;;;;;;;12923012;22;20766;-88
2024/03/15 20:22:40;;;;;;;58.30;34.73;;;;;;;;;;12920658;22;20413;-87
2024/03/15 20:27:46;;;;;;;59.80;36.38;;;;;;;;;;12921594;22;20428;-88
2024/03/15 20:32:55;;;;;;;59.90;37.43;;;;;;;;;;12919489;22;20382;-89
2024/03/15 20:38:01;;;;;;;57.40;35.33;;;;;;;;;;12921832;22;20452;-89
2024/03/15 20:43:05;;;;;;;60.80;35.67;;;;;;;;;;12923737;22;20695;-89
2024/03/15 20:48:11;;;;;;;63.25;38.22;;;;;;;;;;12921351;22;20925;-90
2024/03/15 20:53:14;;;;;;;57.55;36.45;;;;;;;;;;12924802;22;20401;-89
2024/03/15 20:58:22;;;;;;;59.03;36.30;;;;;;;;;;12923018;22;20475;-89
2024/03/15 21:03:33;;;;;;;57.90;36.38;;;;;;;;;;12924141;22;20436;-89
2024/03/15 21:08:42;;;;;;;63.78;38.10;;;;;;;;;;12916379;22;20420;-87
2024/03/15 21:13:47;;;;;;;60.20;36.35;;;;;;;;;;12920675;22;20374;-89
2024/03/15 21:18:52;;;;;;;63.63;36.90;;;;;;;;;;12921105;22;20405;-90
2024/03/15 21:24:03;;;;;;;60.00;36.75;;;;;;;;;;12920374;22;20382;-89
2024/03/15 21:29:09;;;;;;;62.22;37.42;;;;;;;;;;12925194;22;20371;-90
2024/03/15 21:34:19;;;;;;;61.53;36.93;;;;;;;;;;12919995;22;20397;-88
2024/03/15 21:39:27;;;;;;;60.85;37.53;;;;;;;;;;12926196;22;20911;-87
2024/03/15 21:44:36;;;;;;;64.22;37.40;;;;;;;;;;12922921;22;20448;-90
2024/03/15 21:49:39;;;;;;;63.00;36.55;;;;;;;;;;12925666;22;20374;-89
2024/03/15 21:54:47;;;;;;;64.65;38.78;;;;;;;;;;12927869;22;20382;-89
2024/03/15 21:59:53;;;;;;;65.22;38.53;;;;;;;;;;12929313;22;20378;-87
2024/03/15 22:04:59;;;;;;;64.00;38.90;;;;;;;;;;12927891;22;20383;-89
2024/03/15 22:10:02;;;;;;;63.10;37.97;;;;;;;;;;12897718;22;20449;-89
2024/03/15 22:15:08;;;;;;;62.15;37.22;;;;;;;;;;12890704;22;20415;-89
2024/03/15 22:20:14;;;;;;;62.60;36.95;;;;;;;;;;12889225;22;20384;-89
2024/03/15 22:25:23;;;;;;;66.95;38.45;;;;;;;;;;12903368;22;20414;-89
2024/03/15 22:30:29;;;;;;;68.63;38.90;;;;;;;;;;12892430;23;20368;-88
2024/03/15 22:35:34;;;;;;;64.35;38.55;;;;;;;;;;12895062;23;20445;-90
2024/03/15 22:40:37;;;;;;;62.95;38.30;;;;;;;;;;12891820;23;20368;-89
2024/03/15 22:45:47;;;;;;;66.82;38.67;;;;;;;;;;12894040;23;20705;-91
2024/03/15 22:50:53;;;;;;;70.15;40.15;;;;;;;;;;12890440;23;20376;-92
2024/03/15 22:55:56;;;;;;;72.07;40.50;;;;;;;;;;12892240;23;20364;-91
2024/03/15 23:01:05;;;;;;;73.88;40.67;;;;;;;;;;12900461;23;20368;-92
2024/03/15 23:06:09;;;;;;;67.80;40.40;;;;;;;;;;12908253;22;20485;-91
2024/03/15 23:11:15;;;;;;;77.88;42.65;;;;;;;;;;12931276;22;20367;-92
2024/03/15 23:16:21;;;;;;;75.77;43.17;;;;;;;;;;12933449;22;20397;-92
2024/03/15 23:21:30;;;;;;;74.00;42.30;;;;;;;;;;12930713;22;20421;-91
2024/03/15 23:26:34;;;;;;;73.75;41.35;;;;;;;;;;12930231;22;20371;-92
2024/03/15 23:31:38;;;;;;;71.93;41.35;;;;;;;;;;12929546;22;20420;-90
2024/03/15 23:36:43;;;;;;;77.57;42.50;;;;;;;;;;12931734;22;20366;-90
2024/03/15 23:41:49;;;;;;;78.28;42.70;;;;;;;;;;12931565;22;20408;-90
2024/03/15 23:46:54;;;;;;;72.40;43.80;;;;;;;;;;12933139;22;20500;-90
2024/03/15 23:52:00;;;;;;;82.53;42.95;;;;;;;;;;12935039;22;20375;-90
2024/03/15 23:57:05;;;;;;;76.03;42.93;;;;;;;;;;12933275;22;20433;-90
